createdAt,value
2019-02-15T00:01:52.638Z,28.50
2019-02-15T00:04:31.997Z,28.40
2019-02-15T00:07:11.938Z,28.40
2019-02-15T00:09:51.283Z,28.30
2019-02-15T00:12:30.868Z,28.40
2019-02-15T00:15:10.347Z,28.60
2019-02-15T00:18:10.846Z,28.70
2019-02-15T00:21:08.352Z,28.80
2019-02-15T00:23:47.455Z,28.70
2019-02-15T00:26:27.450Z,28.70
2019-02-15T00:29:06.595Z,28.90
2019-02-15T00:31:45.596Z,28.80
2019-02-15T00:34:24.976Z,28.60
2019-02-15T00:37:05.217Z,28.70
2019-02-15T00:39:46.552Z,28.80
2019-02-15T00:42:25.509Z,28.90
2019-02-15T00:45:04.969Z,28.90
2019-02-15T00:47:48.555Z,29.00
2019-02-15T00:50:44.333Z,29.00
2019-02-15T00:53:40.622Z,29.00
2019-02-15T00:56:43.349Z,29.10
2019-02-15T00:59:32.529Z,29.20
2019-02-15T01:02:20.590Z,29.30
2019-02-15T01:05:13.999Z,29.60
2019-02-15T01:08:11.392Z,29.60
2019-02-15T01:11:00.085Z,29.70
2019-02-15T01:13:39.603Z,29.70
2019-02-15T01:16:18.815Z,30.00
2019-02-15T01:18:58.173Z,30.10
2019-02-15T01:21:37.701Z,30.30
2019-02-15T01:24:16.850Z,30.50
2019-02-15T01:27:03.391Z,30.40
2019-02-15T01:30:03.452Z,30.60
2019-02-15T01:32:53.543Z,30.70
2019-02-15T01:35:43.749Z,30.60
2019-02-15T01:38:46.722Z,30.60
2019-02-15T01:41:41.573Z,30.60
2019-02-15T01:44:45.592Z,30.60
2019-02-15T01:47:36.077Z,30.60
2019-02-15T01:50:15.314Z,30.70
2019-02-15T01:52:54.190Z,30.70
2019-02-15T01:55:33.448Z,30.60
2019-02-15T01:58:12.594Z,30.70
2019-02-15T02:00:51.870Z,30.80
2019-02-15T02:03:30.981Z,30.30
2019-02-15T02:06:10.152Z,30.10
2019-02-15T02:08:49.528Z,30.00
2019-02-15T02:11:30.142Z,30.10
2019-02-15T02:14:09.141Z,30.30
2019-02-15T02:16:48.354Z,30.20
2019-02-15T02:19:27.349Z,30.20
2019-02-15T02:22:07.058Z,30.50
2019-02-15T02:24:47.261Z,30.50
2019-02-15T02:27:26.356Z,30.30
2019-02-15T02:30:08.419Z,29.90
2019-02-15T02:32:51.379Z,29.90
2019-02-15T02:35:30.596Z,29.90
2019-02-15T02:38:09.964Z,30.20
2019-02-15T02:40:49.762Z,30.30
2019-02-15T02:43:28.835Z,30.30
2019-02-15T02:46:08.621Z,30.30
2019-02-15T02:48:48.468Z,30.20
2019-02-15T02:51:29.287Z,30.40
2019-02-15T02:54:08.415Z,30.50
2019-02-15T02:56:48.563Z,30.50
2019-02-15T02:59:27.635Z,30.40
2019-02-15T03:02:06.861Z,30.30
2019-02-15T03:04:46.792Z,30.40
2019-02-15T03:07:30.289Z,30.70
2019-02-15T03:10:09.296Z,30.80
2019-02-15T03:12:49.790Z,30.80
2019-02-15T03:15:29.162Z,30.70
2019-02-15T03:18:07.983Z,30.50
2019-02-15T03:20:48.131Z,30.50
2019-02-15T03:23:27.026Z,30.70
2019-02-15T03:26:06.095Z,30.60
2019-02-15T03:28:45.912Z,30.60
2019-02-15T03:31:24.990Z,30.80
2019-02-15T03:34:04.122Z,30.80
2019-02-15T03:37:02.707Z,30.70
2019-02-15T03:40:03.344Z,30.70
2019-02-15T03:42:43.320Z,31.20
2019-02-15T03:45:23.206Z,31.50
2019-02-15T03:48:02.242Z,31.70
2019-02-15T03:50:42.358Z,32.00
2019-02-15T03:53:21.305Z,32.10
2019-02-15T03:56:00.234Z,32.50
2019-02-15T03:58:40.778Z,32.20
2019-02-15T04:01:24.355Z,32.50
2019-02-15T04:04:03.527Z,32.40
2019-02-15T04:06:43.422Z,32.70
2019-02-15T04:09:23.671Z,32.90
2019-02-15T04:12:03.176Z,32.80
2019-02-15T04:14:42.578Z,32.40
2019-02-15T04:17:21.618Z,32.60
2019-02-15T04:20:00.973Z,32.50
2019-02-15T04:22:41.553Z,32.30
2019-02-15T04:25:20.813Z,32.40
2019-02-15T04:27:59.995Z,32.60
2019-02-15T04:30:40.281Z,32.90
2019-02-15T04:33:19.393Z,33.10
2019-02-15T04:35:58.717Z,32.90
2019-02-15T04:38:46.152Z,32.40
2019-02-15T04:41:25.629Z,32.70
2019-02-15T04:44:04.634Z,32.60
2019-02-15T04:46:44.255Z,32.30
2019-02-15T04:49:24.343Z,31.80
2019-02-15T04:52:03.545Z,31.60
2019-02-15T04:54:42.715Z,31.80
2019-02-15T04:57:21.990Z,31.70
2019-02-15T05:00:01.344Z,31.90
2019-02-15T05:02:41.533Z,31.60
2019-02-15T05:05:20.703Z,31.60
2019-02-15T05:08:00.495Z,31.70
2019-02-15T05:10:39.602Z,32.00
2019-02-15T05:13:19.460Z,31.80
2019-02-15T05:15:58.778Z,31.70
2019-02-15T05:18:38.143Z,31.40
2019-02-15T05:21:18.468Z,31.50
2019-02-15T05:23:58.044Z,32.40
2019-02-15T05:26:37.458Z,32.70
2019-02-15T05:29:16.554Z,32.70
2019-02-15T05:31:55.621Z,32.80
2019-02-15T05:34:34.789Z,32.50
2019-02-15T05:37:13.865Z,32.70
2019-02-15T05:39:52.934Z,32.70
2019-02-15T05:42:36.257Z,33.20
2019-02-15T05:45:15.684Z,32.50
2019-02-15T05:47:54.596Z,32.30
2019-02-15T05:50:33.605Z,33.00
2019-02-15T05:53:12.667Z,33.40
2019-02-15T05:55:51.912Z,33.60
2019-02-15T05:58:33.375Z,33.80
2019-02-15T06:01:13.431Z,33.70
2019-02-15T06:03:52.717Z,33.20
2019-02-15T06:06:31.940Z,33.40
2019-02-15T06:09:11.817Z,32.30
2019-02-15T06:11:50.899Z,32.40
2019-02-15T06:14:30.382Z,33.10
2019-02-15T06:17:10.558Z,33.50
2019-02-15T06:19:49.616Z,33.90
2019-02-15T06:22:28.682Z,33.70
2019-02-15T06:25:09.470Z,33.60
2019-02-15T06:27:49.833Z,33.60
2019-02-15T06:30:28.982Z,34.20
2019-02-15T06:33:08.423Z,34.10
2019-02-15T06:35:49.482Z,33.80
2019-02-15T06:38:34.741Z,32.70
2019-02-15T06:41:09.132Z,32.60
2019-02-15T06:43:51.852Z,33.30
2019-02-15T06:46:32.360Z,33.10
2019-02-15T06:49:12.163Z,32.90
2019-02-15T06:51:51.726Z,33.20
2019-02-15T06:54:30.865Z,33.50
2019-02-15T06:57:11.015Z,33.60
2019-02-15T06:59:59.642Z,33.20
2019-02-15T07:02:50.579Z,33.50
2019-02-15T07:05:27.680Z,33.80
2019-02-15T07:08:06.384Z,33.90
2019-02-15T07:10:45.413Z,34.30
2019-02-15T07:13:24.544Z,34.20
2019-02-15T07:16:03.231Z,34.00
2019-02-15T07:18:42.429Z,34.40
2019-02-15T07:21:22.378Z,34.70
2019-02-15T07:24:01.314Z,34.70
2019-02-15T07:26:40.631Z,34.70
2019-02-15T07:29:19.809Z,34.30
2019-02-15T07:31:58.797Z,33.80
2019-02-15T07:34:38.437Z,33.80
2019-02-15T07:37:19.713Z,33.40
2019-02-15T07:39:58.753Z,33.70
2019-02-15T07:42:38.482Z,33.50
2019-02-15T07:45:17.971Z,33.40
2019-02-15T07:47:59.001Z,33.60
2019-02-15T07:50:38.567Z,33.30
2019-02-15T07:53:18.558Z,33.40
2019-02-15T07:55:58.497Z,33.60
2019-02-15T07:58:38.668Z,33.10
2019-02-15T08:01:17.754Z,32.80
2019-02-15T08:03:57.124Z,33.10
2019-02-15T08:06:36.437Z,33.00
2019-02-15T08:09:18.379Z,33.00
2019-02-15T08:11:58.834Z,33.10
2019-02-15T08:14:39.535Z,33.40
2019-02-15T08:17:18.793Z,33.10
2019-02-15T08:19:57.971Z,33.10
2019-02-15T08:22:39.484Z,32.90
2019-02-15T08:25:19.745Z,32.30
2019-02-15T08:28:01.490Z,32.20
2019-02-15T08:30:40.701Z,32.40
2019-02-15T08:33:20.380Z,32.00
2019-02-15T08:36:01.541Z,31.80
2019-02-15T08:38:40.740Z,31.70
2019-02-15T08:41:19.893Z,32.00
2019-02-15T08:43:59.197Z,31.90
2019-02-15T08:46:39.232Z,31.90
2019-02-15T08:49:18.425Z,31.90
2019-02-15T08:51:58.885Z,32.00
2019-02-15T08:54:38.773Z,32.00
2019-02-15T08:57:19.278Z,32.00
2019-02-15T09:00:03.209Z,31.80
2019-02-15T09:02:45.192Z,31.90
2019-02-15T09:05:24.372Z,31.70
2019-02-15T09:08:04.123Z,31.70
2019-02-15T09:10:43.571Z,31.70
2019-02-15T09:13:22.384Z,31.50
2019-02-15T09:16:10.438Z,31.70
2019-02-15T09:18:45.638Z,31.60
2019-02-15T09:21:24.835Z,31.40
2019-02-15T09:24:06.091Z,31.20
2019-02-15T09:26:45.372Z,31.60
2019-02-15T09:29:24.447Z,31.40
2019-02-15T09:32:04.601Z,31.10
2019-02-15T09:34:43.741Z,31.10
2019-02-15T09:37:22.415Z,31.30
2019-02-15T09:40:03.007Z,31.30
2019-02-15T09:42:42.388Z,31.40
2019-02-15T09:45:21.718Z,31.40
2019-02-15T09:48:00.734Z,31.40
2019-02-15T09:50:41.874Z,31.40
2019-02-15T09:53:21.020Z,31.30
2019-02-15T09:56:00.503Z,31.00
2019-02-15T09:58:40.670Z,30.90
2019-02-15T10:01:32.964Z,30.80
2019-02-15T10:04:12.622Z,31.00
2019-02-15T10:06:52.339Z,30.90
2019-02-15T10:09:31.404Z,31.10
2019-02-15T10:12:10.562Z,30.70
2019-02-15T10:14:49.426Z,30.80
2019-02-15T10:17:28.101Z,30.60
2019-02-15T10:20:06.949Z,30.50
2019-02-15T10:22:48.080Z,30.50
2019-02-15T10:25:27.047Z,30.50
2019-02-15T10:28:09.276Z,30.50
2019-02-15T10:30:48.320Z,30.30
2019-02-15T10:33:28.076Z,30.30
2019-02-15T10:36:07.176Z,30.40
2019-02-15T10:38:48.071Z,30.30
2019-02-15T10:41:26.872Z,30.20
2019-02-15T10:44:05.644Z,30.20
2019-02-15T10:46:44.455Z,30.40
2019-02-15T10:49:23.772Z,30.40
2019-02-15T10:52:03.695Z,30.20
2019-02-15T10:54:43.321Z,30.20
2019-02-15T10:57:22.444Z,30.20
2019-02-15T11:00:03.287Z,30.20
2019-02-15T11:02:43.759Z,29.90
2019-02-15T11:05:22.745Z,29.80
2019-02-15T11:08:02.459Z,29.70
2019-02-15T11:10:43.449Z,29.90
2019-02-15T11:13:22.693Z,30.00
2019-02-15T11:16:01.591Z,29.80
2019-02-15T11:18:40.924Z,29.80
2019-02-15T11:21:20.177Z,29.80
2019-02-15T11:23:59.066Z,29.70
2019-02-15T11:26:38.455Z,29.60
2019-02-15T11:29:18.750Z,29.60
2019-02-15T11:31:57.572Z,29.70
2019-02-15T11:34:36.456Z,29.80
2019-02-15T11:37:16.944Z,29.90
2019-02-15T11:39:56.149Z,29.70
2019-02-15T11:42:36.351Z,29.70
2019-02-15T11:45:16.360Z,29.80
2019-02-15T11:47:55.567Z,29.80
2019-02-15T11:50:34.600Z,29.60
2019-02-15T11:53:13.724Z,29.60
2019-02-15T11:55:54.935Z,29.50
2019-02-15T11:58:34.500Z,29.40
2019-02-15T12:01:13.492Z,29.30
2019-02-15T12:03:53.842Z,29.30
2019-02-15T12:06:32.597Z,29.50
2019-02-15T12:09:15.899Z,29.50
2019-02-15T12:12:10.143Z,29.60
2019-02-15T12:14:46.805Z,29.20
2019-02-15T12:17:29.406Z,29.40
2019-02-15T12:20:10.149Z,29.40
2019-02-15T12:22:52.393Z,29.30
2019-02-15T12:25:32.621Z,29.30
2019-02-15T12:28:11.555Z,29.30
2019-02-15T12:30:51.828Z,29.30
2019-02-15T12:33:32.555Z,29.20
2019-02-15T12:36:11.743Z,29.20
2019-02-15T12:38:54.871Z,29.30
2019-02-15T12:41:34.309Z,29.30
2019-02-15T12:44:14.555Z,29.30
2019-02-15T12:46:53.677Z,29.10
2019-02-15T12:49:33.096Z,29.10
2019-02-15T12:52:18.809Z,29.20
2019-02-15T12:55:00.316Z,29.30
2019-02-15T12:57:41.191Z,29.20
2019-02-15T13:00:24.753Z,29.10
2019-02-15T13:03:13.841Z,29.20
2019-02-15T13:05:54.210Z,29.30
2019-02-15T13:08:33.446Z,29.30
2019-02-15T13:11:12.743Z,29.30
2019-02-15T13:13:51.599Z,29.20
2019-02-15T13:16:33.092Z,29.20
2019-02-15T13:19:41.237Z,29.10
2019-02-15T13:22:20.681Z,29.20
2019-02-15T13:25:01.709Z,29.30
2019-02-15T13:27:43.230Z,29.20
2019-02-15T13:30:33.533Z,29.00
2019-02-15T13:33:15.922Z,29.10
2019-02-15T13:36:08.944Z,29.20
2019-02-15T13:38:57.233Z,29.20
2019-02-15T13:41:38.782Z,29.00
2019-02-15T13:44:46.983Z,29.00
2019-02-15T13:47:34.999Z,29.10
2019-02-15T13:50:14.461Z,29.20
2019-02-15T13:53:02.919Z,29.00
2019-02-15T13:55:58.156Z,29.10
2019-02-15T13:58:37.352Z,29.10
2019-02-15T14:01:17.610Z,29.00
2019-02-15T14:04:23.312Z,29.00
2019-02-15T14:07:33.952Z,29.00
2019-02-15T14:10:46.601Z,29.10
2019-02-15T14:13:59.161Z,29.20
2019-02-15T14:16:40.003Z,29.00
2019-02-15T14:19:26.169Z,29.10
2019-02-15T14:22:22.708Z,29.20
2019-02-15T14:25:05.502Z,29.10
2019-02-15T14:27:47.359Z,28.80
2019-02-15T14:30:43.266Z,28.90
2019-02-15T14:34:07.500Z,29.10
2019-02-15T14:36:48.832Z,29.00
2019-02-15T14:39:50.344Z,29.00
2019-02-15T14:42:51.778Z,29.00
2019-02-15T14:45:53.739Z,29.10
2019-02-15T14:48:41.446Z,29.00
2019-02-15T14:51:47.003Z,29.00
2019-02-15T14:54:27.621Z,29.20
2019-02-15T14:57:50.296Z,29.30
2019-02-15T15:00:53.829Z,29.10
2019-02-15T15:03:43.137Z,29.00
2019-02-15T15:06:30.810Z,29.10
2019-02-15T15:09:11.341Z,29.20
2019-02-15T15:12:00.762Z,29.30
2019-02-15T15:14:45.271Z,29.10
2019-02-15T15:17:25.508Z,29.30
2019-02-15T15:20:17.952Z,29.00
2019-02-15T15:23:12.254Z,29.10
2019-02-15T15:25:57.317Z,29.20
2019-02-15T15:28:39.887Z,29.20
2019-02-15T15:31:21.886Z,29.20
2019-02-15T15:34:06.603Z,29.00
2019-02-15T15:37:01.920Z,29.10
2019-02-15T15:39:43.399Z,29.10
2019-02-15T15:42:22.871Z,29.10
2019-02-15T15:45:05.343Z,29.00
2019-02-15T15:47:50.609Z,29.10
2019-02-15T15:50:29.701Z,29.20
2019-02-15T15:53:10.550Z,29.00
2019-02-15T15:55:51.220Z,28.80
2019-02-15T15:58:34.098Z,28.80
2019-02-15T16:01:13.467Z,29.00
2019-02-15T16:03:58.523Z,29.00
2019-02-15T16:06:39.748Z,28.90
2019-02-15T16:09:21.307Z,28.80
2019-02-15T16:12:01.235Z,29.00
2019-02-15T16:14:41.487Z,29.00
2019-02-15T16:17:24.355Z,28.90
2019-02-15T16:20:03.587Z,28.80
2019-02-15T16:22:45.227Z,28.80
2019-02-15T16:25:24.524Z,28.90
2019-02-15T16:28:04.894Z,28.90
2019-02-15T16:30:46.787Z,29.00
2019-02-15T16:33:26.184Z,28.90
2019-02-15T16:36:05.278Z,28.90
2019-02-15T16:38:46.821Z,28.90
2019-02-15T16:41:27.514Z,28.90
2019-02-15T16:44:07.853Z,28.90
2019-02-15T16:46:52.825Z,28.90
2019-02-15T16:49:34.030Z,28.80
2019-02-15T16:52:16.533Z,28.70
2019-02-15T16:54:58.772Z,28.80
2019-02-15T16:57:37.952Z,28.60
2019-02-15T17:00:18.698Z,28.60
2019-02-15T17:03:01.786Z,28.70
2019-02-15T17:05:51.804Z,28.70
2019-02-15T17:08:30.654Z,28.50
2019-02-15T17:11:11.935Z,28.50
2019-02-15T17:13:51.973Z,28.70
2019-02-15T17:16:31.788Z,28.70
2019-02-15T17:19:12.288Z,28.60
2019-02-15T17:22:06.573Z,28.60
2019-02-15T17:24:44.730Z,28.60
2019-02-15T17:27:26.490Z,28.50
2019-02-15T17:30:06.512Z,28.50
2019-02-15T17:32:46.758Z,28.50
2019-02-15T17:35:25.807Z,28.60
2019-02-15T17:38:05.776Z,28.50
2019-02-15T17:40:45.537Z,28.50
2019-02-15T17:43:25.704Z,28.50
2019-02-15T17:46:05.249Z,28.60
2019-02-15T17:48:46.058Z,28.60
2019-02-15T17:51:25.263Z,28.50
2019-02-15T17:54:04.910Z,28.50
2019-02-15T17:56:43.944Z,28.50
2019-02-15T17:59:25.275Z,28.60
2019-02-15T18:02:05.948Z,28.50
2019-02-15T18:04:45.223Z,28.40
2019-02-15T18:07:24.187Z,28.40
2019-02-15T18:10:03.308Z,28.50
2019-02-15T18:12:43.441Z,28.40
2019-02-15T18:15:22.523Z,28.40
2019-02-15T18:18:01.709Z,28.40
2019-02-15T18:20:41.002Z,28.40
2019-02-15T18:23:23.320Z,28.40
2019-02-15T18:26:03.495Z,28.30
2019-02-15T18:28:42.765Z,28.30
2019-02-15T18:31:21.989Z,28.30
2019-02-15T18:34:16.846Z,28.30
2019-02-15T18:37:16.995Z,28.30
2019-02-15T18:39:57.326Z,28.30
2019-02-15T18:42:40.328Z,28.30
2019-02-15T18:49:27.194Z,28.30
2019-02-15T18:52:15.487Z,28.30
2019-02-15T19:03:32.935Z,28.20
2019-02-15T19:06:38.914Z,28.20
2019-02-15T19:09:33.666Z,28.30
2019-02-15T19:12:39.321Z,28.30
2019-02-15T19:15:42.878Z,28.30
2019-02-15T19:18:39.136Z,28.30
2019-02-15T19:21:40.948Z,28.30
2019-02-15T19:24:28.954Z,28.20
2019-02-15T19:27:28.341Z,28.20
2019-02-15T19:30:27.522Z,28.20
2019-02-15T19:33:14.982Z,28.20
2019-02-15T19:36:19.812Z,28.20
2019-02-15T19:39:28.326Z,28.20
2019-02-15T19:42:09.666Z,28.20
2019-02-15T19:44:58.930Z,28.30
2019-02-15T19:47:39.103Z,28.30
2019-02-15T19:50:19.339Z,28.30
2019-02-15T19:52:59.106Z,28.20
2019-02-15T19:55:38.483Z,28.20
2019-02-15T19:58:17.784Z,28.20
2019-02-15T20:00:56.796Z,28.30
2019-02-15T20:03:36.384Z,28.30
2019-02-15T20:06:16.799Z,28.30
2019-02-15T20:08:56.291Z,28.20
2019-02-15T20:11:35.461Z,28.20
2019-02-15T20:14:15.445Z,28.30
2019-02-15T20:16:55.232Z,28.30
2019-02-15T20:19:34.341Z,28.20
2019-02-15T20:22:14.318Z,28.20
2019-02-15T20:24:58.732Z,28.20
2019-02-15T20:27:38.484Z,28.20
2019-02-15T20:30:19.556Z,28.20
2019-02-15T20:32:58.869Z,28.20
2019-02-15T20:35:38.186Z,28.10
2019-02-15T20:38:18.434Z,28.20
2019-02-15T20:41:00.869Z,28.20
2019-02-15T20:43:42.326Z,28.30
2019-02-15T20:46:21.419Z,28.20
2019-02-15T20:49:04.700Z,28.20
2019-02-15T20:51:41.997Z,28.30
2019-02-15T20:54:22.392Z,28.30
2019-02-15T20:57:01.647Z,28.30
2019-02-15T20:59:41.493Z,28.10
2019-02-15T21:02:27.408Z,28.10
2019-02-15T21:05:06.911Z,28.20
2019-02-15T21:07:46.413Z,28.30
2019-02-15T21:10:25.281Z,28.30
2019-02-15T21:13:04.505Z,28.20
2019-02-15T21:15:45.424Z,28.20
2019-02-15T21:18:24.324Z,28.30
2019-02-15T21:21:06.542Z,28.30
2019-02-15T21:23:43.262Z,28.30
2019-02-15T21:26:23.449Z,28.20
2019-02-15T21:29:02.734Z,28.20
2019-02-15T21:31:42.062Z,28.20
2019-02-15T21:34:21.328Z,28.20
2019-02-15T21:37:00.678Z,28.20
2019-02-15T21:39:40.195Z,28.20
2019-02-15T21:42:19.418Z,28.10
2019-02-15T21:44:58.460Z,28.10
2019-02-15T21:47:38.332Z,28.20
2019-02-15T21:50:17.935Z,28.30
2019-02-15T21:52:57.143Z,28.30
2019-02-15T21:55:40.112Z,28.30
2019-02-15T21:58:19.238Z,28.20
2019-02-15T22:00:58.525Z,28.30
2019-02-15T22:03:37.875Z,28.30
2019-02-15T22:06:17.406Z,28.30
2019-02-15T22:08:56.977Z,28.20
2019-02-15T22:11:36.232Z,28.20
2019-02-15T22:14:15.386Z,28.20
2019-02-15T22:16:54.582Z,28.30
2019-02-15T22:19:33.620Z,28.30
2019-02-15T22:22:12.875Z,28.20
2019-02-15T22:24:51.859Z,28.20
2019-02-15T22:27:32.022Z,28.10
2019-02-15T22:30:12.220Z,28.20
2019-02-15T22:32:52.133Z,28.30
2019-02-15T22:35:31.136Z,28.40
2019-02-15T22:38:11.337Z,28.50
2019-02-15T22:40:52.268Z,28.30
2019-02-15T22:43:31.300Z,28.40
2019-02-15T22:46:10.821Z,28.80
2019-02-15T22:48:50.740Z,28.70
2019-02-15T22:51:30.009Z,28.60
2019-02-15T22:54:09.223Z,28.70
2019-02-15T22:56:48.297Z,28.70
2019-02-15T22:59:27.571Z,28.40
2019-02-15T23:02:06.403Z,28.30
2019-02-15T23:04:45.990Z,28.40
2019-02-15T23:07:25.112Z,28.40
2019-02-15T23:10:04.311Z,28.30
2019-02-15T23:12:43.831Z,28.40
2019-02-15T23:15:23.983Z,28.70
2019-02-15T23:18:02.891Z,28.60
2019-02-15T23:20:45.299Z,28.50
2019-02-15T23:23:22.564Z,28.50
2019-02-15T23:26:01.628Z,28.40
2019-02-15T23:28:40.944Z,28.40
2019-02-15T23:31:21.500Z,28.30
2019-02-15T23:34:00.132Z,28.50
2019-02-15T23:36:39.758Z,28.40
2019-02-15T23:39:18.916Z,28.30
2019-02-15T23:41:58.922Z,28.30
2019-02-15T23:44:38.216Z,28.50
2019-02-15T23:47:17.437Z,28.40
2019-02-15T23:49:56.366Z,28.40
2019-02-15T23:52:35.451Z,28.30
2019-02-15T23:55:14.515Z,28.50
2019-02-15T23:57:53.499Z,28.30
